Time;durP1;ratioP1;P1;durP2;ratioP2;P2;SDS_P1;SDS_P2;PMS_P1;PMS_P2;Temp;Humidity;BMP_temperature;BMP_pressure;BME280_temperature;BME280_humidity;BME280_pressure;Samples;Min_cycle;Max_cycle;Signal;HPM_P1;HPM_P2
2021/12/09 00:00:01;;;;;;;8.90;7.03;;;;;;;;;;5008395;28;94057;-72
2021/12/09 00:02:37;;;;;;;12.73;7.68;;;;;;;;;;5005865;28;94329;-73
2021/12/09 00:05:05;;;;;;;13.48;8.60;;;;;;;;;;5010921;28;93434;-73
2021/12/09 00:07:31;;;;;;;16.58;8.10;;;;;;;;;;5006277;28;91734;-73
2021/12/09 00:09:58;;;;;;;15.20;9.10;;;;;;;;;;5011696;28;94452;-73
2021/12/09 00:12:26;;;;;;;14.73;9.73;;;;;;;;;;5007908;28;94383;-73
2021/12/09 00:14:52;;;;;;;19.40;8.27;;;;;;;;;;5002117;28;94878;-72
2021/12/09 00:17:18;;;;;;;12.85;9.70;;;;;;;;;;5013333;28;96339;-72
2021/12/09 00:19:45;;;;;;;13.88;9.15;;;;;;;;;;5011285;28;94346;-72
2021/12/09 00:22:12;;;;;;;11.70;8.45;;;;;;;;;;5006418;28;92942;-72
2021/12/09 00:24:38;;;;;;;10.95;8.57;;;;;;;;;;5001634;28;93454;-72
2021/12/09 00:27:05;;;;;;;13.75;9.18;;;;;;;;;;5011040;28;92481;-72
2021/12/09 00:29:31;;;;;;;11.52;9.02;;;;;;;;;;5007157;28;93886;-72
2021/12/09 00:31:57;;;;;;;16.15;9.68;;;;;;;;;;5010285;28;92592;-72
2021/12/09 00:34:30;;;;;;;18.42;9.38;;;;;;;;;;4996668;28;92805;-73
2021/12/09 00:37:15;;;;;;;27.35;9.18;;;;;;;;;;5012021;28;93955;-73
2021/12/09 00:39:43;;;;;;;14.85;9.05;;;;;;;;;;4999717;28;96151;-73
2021/12/09 00:42:10;;;;;;;15.55;8.80;;;;;;;;;;5013702;28;92574;-73
2021/12/09 00:44:37;;;;;;;16.73;9.18;;;;;;;;;;5009006;28;93397;-73
2021/12/09 00:47:03;;;;;;;12.77;8.60;;;;;;;;;;5008724;28;93005;-73
2021/12/09 00:49:31;;;;;;;15.77;9.07;;;;;;;;;;5013209;28;94060;-73
2021/12/09 00:51:58;;;;;;;17.55;9.93;;;;;;;;;;5010045;28;93242;-73
2021/12/09 00:54:26;;;;;;;12.70;9.20;;;;;;;;;;5007594;28;92701;-73
2021/12/09 00:56:53;;;;;;;20.42;10.07;;;;;;;;;;5002719;28;93977;-72
2021/12/09 00:59:19;;;;;;;16.42;9.68;;;;;;;;;;5012685;28;93311;-72
2021/12/09 01:01:45;;;;;;;18.17;9.50;;;;;;;;;;5007195;28;93020;-73
2021/12/09 01:04:12;;;;;;;15.88;10.38;;;;;;;;;;5005695;28;94975;-72
2021/12/09 01:06:38;;;;;;;18.23;9.10;;;;;;;;;;5009865;28;93477;-72
2021/12/09 01:09:05;;;;;;;12.23;9.32;;;;;;;;;;5001999;28;93190;-72
2021/12/09 01:11:32;;;;;;;17.20;8.98;;;;;;;;;;5003767;28;94049;-72
2021/12/09 01:13:58;;;;;;;15.50;8.98;;;;;;;;;;5008547;28;92523;-72
2021/12/09 01:16:24;;;;;;;15.00;8.73;;;;;;;;;;5008283;28;94041;-72
2021/12/09 01:18:51;;;;;;;15.65;9.38;;;;;;;;;;5012916;28;94095;-72
2021/12/09 01:21:18;;;;;;;11.77;9.15;;;;;;;;;;5010028;28;91730;-72
2021/12/09 01:23:44;;;;;;;15.73;8.88;;;;;;;;;;5002986;28;93448;-72
2021/12/09 01:26:10;;;;;;;15.30;8.70;;;;;;;;;;5008648;28;93447;-72
2021/12/09 01:28:49;;;;;;;15.73;8.00;;;;;;;;;;4994759;28;95424;-72
2021/12/09 01:31:24;;;;;;;17.67;9.15;;;;;;;;;;5011842;28;93349;-72
2021/12/09 01:33:52;;;;;;;13.65;8.32;;;;;;;;;;5001543;28;92622;-72
2021/12/09 01:36:19;;;;;;;17.73;8.82;;;;;;;;;;5011924;28;93788;-73
2021/12/09 01:38:46;;;;;;;12.45;7.95;;;;;;;;;;5007635;28;94550;-73
2021/12/09 01:41:12;;;;;;;9.85;7.95;;;;;;;;;;5010707;28;92555;-73
2021/12/09 01:43:39;;;;;;;11.75;7.20;;;;;;;;;;5002682;28;93843;-73
2021/12/09 01:46:07;;;;;;;13.10;8.25;;;;;;;;;;5011409;28;95791;-73
2021/12/09 01:48:34;;;;;;;12.63;7.85;;;;;;;;;;5008978;28;92637;-74
2021/12/09 01:51:01;;;;;;;10.13;7.95;;;;;;;;;;5012123;28;94136;-73
2021/12/09 01:53:27;;;;;;;12.23;8.38;;;;;;;;;;5006294;28;95322;-73
2021/12/09 01:55:56;;;;;;;14.48;7.80;;;;;;;;;;5008132;28;96250;-73
2021/12/09 01:58:23;;;;;;;13.30;7.72;;;;;;;;;;5006309;28;94046;-74
2021/12/09 02:00:49;;;;;;;18.95;8.88;;;;;;;;;;5009082;28;94024;-72
2021/12/09 02:03:16;;;;;;;13.02;7.38;;;;;;;;;;5007488;28;95449;-72
2021/12/09 02:05:42;;;;;;;18.80;7.57;;;;;;;;;;5013240;28;93403;-72
2021/12/09 02:08:11;;;;;;;12.02;7.95;;;;;;;;;;5001244;28;92574;-73
2021/12/09 02:10:38;;;;;;;17.88;8.52;;;;;;;;;;5013433;28;93948;-72
2021/12/09 02:13:04;;;;;;;10.52;7.07;;;;;;;;;;5013608;28;93077;-72
2021/12/09 02:15:30;;;;;;;19.52;8.10;;;;;;;;;;5007307;28;93960;-73
2021/12/09 02:17:58;;;;;;;15.50;7.85;;;;;;;;;;5012586;28;97246;-73
2021/12/09 02:20:26;;;;;;;19.23;8.27;;;;;;;;;;5013534;28;92495;-73
2021/12/09 02:22:52;;;;;;;14.90;8.02;;;;;;;;;;5012716;28;93927;-73
2021/12/09 02:25:19;;;;;;;14.07;7.82;;;;;;;;;;5014830;28;94193;-72
2021/12/09 02:27:45;;;;;;;15.25;8.00;;;;;;;;;;5006571;28;92711;-73
2021/12/09 02:30:12;;;;;;;11.82;6.90;;;;;;;;;;5009161;28;94976;-73
2021/12/09 02:32:39;;;;;;;18.50;7.78;;;;;;;;;;5007638;28;92985;-73
2021/12/09 02:35:05;;;;;;;15.95;7.35;;;;;;;;;;5011910;28;93319;-73
2021/12/09 02:37:32;;;;;;;11.45;7.03;;;;;;;;;;4999696;28;94268;-73
2021/12/09 02:39:58;;;;;;;18.02;7.70;;;;;;;;;;5003041;28;92503;-72
2021/12/09 02:42:25;;;;;;;14.02;7.82;;;;;;;;;;5011490;28;94929;-72
2021/12/09 02:44:51;;;;;;;12.68;7.35;;;;;;;;;;5005064;28;94437;-72
2021/12/09 02:47:19;;;;;;;13.35;7.78;;;;;;;;;;5007112;28;92785;-73
2021/12/09 02:49:46;;;;;;;17.52;7.90;;;;;;;;;;5011136;28;95540;-73
2021/12/09 02:52:12;;;;;;;21.40;8.27;;;;;;;;;;5013019;28;94190;-72
2021/12/09 02:54:38;;;;;;;12.38;7.40;;;;;;;;;;5017345;28;92880;-73
2021/12/09 02:57:06;;;;;;;16.60;7.60;;;;;;;;;;5001234;28;94095;-73
2021/12/09 02:59:32;;;;;;;17.27;7.50;;;;;;;;;;5015322;28;91725;-73
2021/12/09 03:02:00;;;;;;;19.30;8.50;;;;;;;;;;5004994;28;93667;-73
2021/12/09 03:04:37;;;;;;;13.15;7.85;;;;;;;;;;5006665;28;93604;-73
2021/12/09 03:07:05;;;;;;;19.45;8.05;;;;;;;;;;5010871;28;94887;-73
2021/12/09 03:09:33;;;;;;;20.05;7.65;;;;;;;;;;5012668;28;96262;-73
2021/12/09 03:12:04;;;;;;;14.73;7.78;;;;;;;;;;5003786;28;94674;-73
2021/12/09 03:14:31;;;;;;;15.57;8.00;;;;;;;;;;5014207;28;92751;-73
2021/12/09 03:16:58;;;;;;;15.30;8.00;;;;;;;;;;5011203;28;93213;-73
2021/12/09 03:19:24;;;;;;;16.15;8.13;;;;;;;;;;5008695;28;92667;-73
2021/12/09 03:21:52;;;;;;;12.23;7.78;;;;;;;;;;5012739;28;93192;-73
2021/12/09 03:24:20;;;;;;;11.23;8.45;;;;;;;;;;5008514;28;91983;-73
2021/12/09 03:26:46;;;;;;;16.58;7.70;;;;;;;;;;5011006;28;92875;-73
2021/12/09 03:29:14;;;;;;;15.88;7.22;;;;;;;;;;4999215;28;93938;-73
2021/12/09 03:31:42;;;;;;;19.15;7.47;;;;;;;;;;5007973;28;96360;-73
2021/12/09 03:34:10;;;;;;;16.23;8.00;;;;;;;;;;5010333;28;93021;-73
2021/12/09 03:36:36;;;;;;;25.58;8.38;;;;;;;;;;4998825;28;94045;-73
2021/12/09 03:39:08;;;;;;;10.88;7.30;;;;;;;;;;4992643;28;92515;-73
2021/12/09 03:41:34;;;;;;;11.98;7.60;;;;;;;;;;5008003;28;93924;-74
2021/12/09 03:44:01;;;;;;;9.25;7.30;;;;;;;;;;4997023;28;93336;-73
2021/12/09 03:46:27;;;;;;;21.30;8.55;;;;;;;;;;5009794;28;92615;-73
2021/12/09 03:48:54;;;;;;;19.17;8.13;;;;;;;;;;5012673;28;93905;-72
2021/12/09 03:51:20;;;;;;;12.63;7.30;;;;;;;;;;5009359;28;94481;-73
2021/12/09 03:53:47;;;;;;;13.57;8.02;;;;;;;;;;5008575;28;92780;-73
2021/12/09 03:56:13;;;;;;;17.80;8.77;;;;;;;;;;5005974;28;94866;-73
2021/12/09 03:58:39;;;;;;;15.48;7.43;;;;;;;;;;5016697;28;93807;-72
2021/12/09 04:01:06;;;;;;;19.98;8.13;;;;;;;;;;5007479;28;92864;-72
2021/12/09 04:03:33;;;;;;;17.35;8.10;;;;;;;;;;5008623;28;94277;-73
2021/12/09 04:05:59;;;;;;;18.83;7.40;;;;;;;;;;5011377;28;92607;-74
2021/12/09 04:08:25;;;;;;;13.85;6.88;;;;;;;;;;5002731;28;93111;-72
2021/12/09 04:10:52;;;;;;;14.60;7.68;;;;;;;;;;5012574;28;94568;-72
2021/12/09 04:13:18;;;;;;;12.40;7.53;;;;;;;;;;4994909;28;91746;-72
2021/12/09 04:15:45;;;;;;;16.30;7.72;;;;;;;;;;4996762;28;94133;-72
2021/12/09 04:18:11;;;;;;;6.95;5.38;;;;;;;;;;5005900;28;94047;-73
2021/12/09 04:20:38;;;;;;;16.48;7.43;;;;;;;;;;4996824;28;95155;-73
2021/12/09 04:23:05;;;;;;;21.40;7.28;;;;;;;;;;5013769;28;94298;-73
2021/12/09 04:25:32;;;;;;;16.65;7.55;;;;;;;;;;5003434;28;95339;-72
2021/12/09 04:27:59;;;;;;;13.75;7.45;;;;;;;;;;5003762;28;95041;-72
2021/12/09 04:30:25;;;;;;;11.55;7.32;;;;;;;;;;4996867;28;93277;-73
2021/12/09 04:32:53;;;;;;;13.07;6.68;;;;;;;;;;5008203;28;92592;-73
2021/12/09 04:35:19;;;;;;;17.23;7.82;;;;;;;;;;5011139;28;94267;-73
2021/12/09 04:37:47;;;;;;;17.48;6.72;;;;;;;;;;5009795;28;92957;-73
2021/12/09 04:40:14;;;;;;;14.48;6.82;;;;;;;;;;5009649;28;92505;-72
2021/12/09 04:42:41;;;;;;;14.48;6.07;;;;;;;;;;5004370;28;94526;-72
2021/12/09 04:45:08;;;;;;;10.60;6.57;;;;;;;;;;5009203;28;96603;-72
2021/12/09 04:47:35;;;;;;;14.90;6.10;;;;;;;;;;5005885;28;96529;-72
2021/12/09 04:50:04;;;;;;;16.45;7.28;;;;;;;;;;5013166;28;93206;-72
2021/12/09 04:52:30;;;;;;;18.08;8.20;;;;;;;;;;5010533;28;92498;-72
2021/12/09 04:54:58;;;;;;;16.75;6.60;;;;;;;;;;5011094;28;94231;-72
2021/12/09 04:57:24;;;;;;;13.00;5.85;;;;;;;;;;5002197;28;94664;-73
2021/12/09 04:59:51;;;;;;;12.35;6.03;;;;;;;;;;5009152;28;92894;-73
2021/12/09 05:03:01;;;;;;;19.30;6.60;;;;;;;;;;5007643;28;93916;-72
2021/12/09 05:05:13;;;;;;;10.98;6.00;;;;;;;;;;4995626;28;94527;-72
2021/12/09 05:07:39;;;;;;;17.58;6.25;;;;;;;;;;5000891;28;93662;-73
2021/12/09 05:10:06;;;;;;;17.50;6.72;;;;;;;;;;5008233;28;96912;-73
2021/12/09 05:12:32;;;;;;;17.40;6.07;;;;;;;;;;5001469;28;92566;-72
2021/12/09 05:14:59;;;;;;;13.02;6.03;;;;;;;;;;5009957;28;94354;-72
2021/12/09 05:17:25;;;;;;;25.10;6.90;;;;;;;;;;5006538;28;94223;-72
2021/12/09 05:19:51;;;;;;;13.35;6.45;;;;;;;;;;4993914;28;93040;-72
2021/12/09 05:22:18;;;;;;;12.68;6.13;;;;;;;;;;5000214;27;92719;-72
2021/12/09 05:24:48;;;;;;;19.20;6.32;;;;;;;;;;5012585;28;93685;-72
2021/12/09 05:27:16;;;;;;;15.55;6.40;;;;;;;;;;5012270;28;92214;-72
2021/12/09 05:29:44;;;;;;;17.30;6.82;;;;;;;;;;4998863;28;95309;-72
2021/12/09 05:32:12;;;;;;;12.13;5.50;;;;;;;;;;5007295;28;92502;-73
2021/12/09 05:34:41;;;;;;;17.35;6.47;;;;;;;;;;5008121;28;94860;-72
2021/12/09 05:37:09;;;;;;;12.65;6.20;;;;;;;;;;5011255;28;92586;-73
2021/12/09 05:39:36;;;;;;;17.65;6.07;;;;;;;;;;5012321;28;93216;-72
2021/12/09 05:42:05;;;;;;;21.30;5.90;;;;;;;;;;5009152;28;93587;-72
2021/12/09 05:44:31;;;;;;;15.50;5.88;;;;;;;;;;4985700;28;93860;-72
2021/12/09 05:46:58;;;;;;;18.90;5.90;;;;;;;;;;5013608;28;92527;-73
2021/12/09 05:49:25;;;;;;;9.43;5.90;;;;;;;;;;4983792;28;94536;-72
2021/12/09 05:51:53;;;;;;;11.80;5.78;;;;;;;;;;5009344;28;92086;-72
2021/12/09 05:54:19;;;;;;;11.50;6.40;;;;;;;;;;5011099;28;93821;-72
2021/12/09 05:56:45;;;;;;;12.77;5.45;;;;;;;;;;5008056;28;94121;-73
2021/12/09 05:59:12;;;;;;;17.17;5.50;;;;;;;;;;5012692;28;94833;-73
2021/12/09 06:01:39;;;;;;;15.23;6.28;;;;;;;;;;5000174;28;95366;-73
2021/12/09 06:04:06;;;;;;;15.38;5.78;;;;;;;;;;5013688;28;93803;-73
2021/12/09 06:06:33;;;;;;;12.07;5.55;;;;;;;;;;5011784;28;93004;-73
2021/12/09 06:09:00;;;;;;;12.02;5.70;;;;;;;;;;5013872;28;93848;-73
2021/12/09 06:11:27;;;;;;;15.00;6.25;;;;;;;;;;5009910;28;92556;-74
2021/12/09 06:13:53;;;;;;;18.90;5.35;;;;;;;;;;5006942;28;93961;-73
2021/12/09 06:16:20;;;;;;;16.10;7.38;;;;;;;;;;4998922;28;93785;-73
2021/12/09 06:18:47;;;;;;;11.57;6.20;;;;;;;;;;5001546;28;92523;-73
2021/12/09 06:21:14;;;;;;;10.00;5.43;;;;;;;;;;5010993;28;93325;-73
2021/12/09 06:23:40;;;;;;;16.40;6.68;;;;;;;;;;5010407;28;97626;-73
2021/12/09 06:26:07;;;;;;;16.20;6.13;;;;;;;;;;5009366;28;93114;-73
2021/12/09 06:28:34;;;;;;;12.40;6.43;;;;;;;;;;5002979;28;93304;-73
2021/12/09 06:31:02;;;;;;;12.85;5.95;;;;;;;;;;5008378;28;94481;-73
2021/12/09 06:33:29;;;;;;;13.77;6.45;;;;;;;;;;4999544;28;94947;-73
2021/12/09 06:35:55;;;;;;;13.40;5.55;;;;;;;;;;5006758;28;94546;-73
2021/12/09 06:38:22;;;;;;;15.15;5.90;;;;;;;;;;5011121;28;92988;-73
2021/12/09 06:40:49;;;;;;;15.50;6.30;;;;;;;;;;5010154;28;94795;-73
2021/12/09 06:43:16;;;;;;;11.82;6.05;;;;;;;;;;5011715;28;94619;-73
2021/12/09 06:45:43;;;;;;;17.45;6.40;;;;;;;;;;5002645;28;93856;-74
2021/12/09 06:48:10;;;;;;;10.70;5.10;;;;;;;;;;4998159;28;95213;-73
2021/12/09 06:50:36;;;;;;;17.05;5.75;;;;;;;;;;5011730;28;94305;-74
2021/12/09 06:53:03;;;;;;;14.05;5.45;;;;;;;;;;5015446;28;92530;-74
2021/12/09 06:55:31;;;;;;;14.85;5.82;;;;;;;;;;5014985;28;94240;-73
2021/12/09 06:57:57;;;;;;;12.05;5.47;;;;;;;;;;5007183;28;92598;-74
2021/12/09 07:00:26;;;;;;;8.63;5.95;;;;;;;;;;4993969;28;94347;-74
2021/12/09 07:02:53;;;;;;;16.75;6.50;;;;;;;;;;5009309;28;93445;-73
2021/12/09 07:05:20;;;;;;;12.90;5.85;;;;;;;;;;5007066;28;91713;-73
2021/12/09 07:07:48;;;;;;;24.35;7.32;;;;;;;;;;5014415;28;92969;-74
2021/12/09 07:10:14;;;;;;;9.70;6.28;;;;;;;;;;5009441;28;94978;-74
2021/12/09 07:12:40;;;;;;;10.98;6.88;;;;;;;;;;5011153;28;94954;-74
2021/12/09 07:15:09;;;;;;;21.95;6.97;;;;;;;;;;5008857;28;96661;-74
2021/12/09 07:17:35;;;;;;;14.60;6.32;;;;;;;;;;5010108;28;92573;-74
2021/12/09 07:20:04;;;;;;;10.77;6.70;;;;;;;;;;5007702;28;94046;-74
2021/12/09 07:22:30;;;;;;;14.02;7.03;;;;;;;;;;4993788;28;93122;-74
2021/12/09 07:24:57;;;;;;;13.23;6.45;;;;;;;;;;4996634;28;92534;-74
2021/12/09 07:27:23;;;;;;;20.10;7.13;;;;;;;;;;5008421;28;93966;-74
2021/12/09 07:29:49;;;;;;;16.02;7.00;;;;;;;;;;5013445;28;93556;-74
2021/12/09 07:32:16;;;;;;;15.63;7.18;;;;;;;;;;5010430;28;92752;-74
2021/12/09 07:34:42;;;;;;;12.73;6.63;;;;;;;;;;5014323;28;93386;-74
2021/12/09 07:37:09;;;;;;;17.10;7.53;;;;;;;;;;5000025;28;95292;-74
2021/12/09 07:39:35;;;;;;;18.10;7.15;;;;;;;;;;4994661;28;97176;-74
2021/12/09 07:42:05;;;;;;;14.35;6.40;;;;;;;;;;4991857;28;93650;-74
2021/12/09 07:44:33;;;;;;;21.13;7.88;;;;;;;;;;4991450;28;94083;-76
2021/12/09 07:46:59;;;;;;;20.92;6.88;;;;;;;;;;4994990;28;94053;-78
2021/12/09 07:49:26;;;;;;;20.58;6.82;;;;;;;;;;4992163;28;93321;-74
2021/12/09 07:51:52;;;;;;;19.98;7.10;;;;;;;;;;4994622;28;93223;-74
2021/12/09 07:54:19;;;;;;;12.85;6.20;;;;;;;;;;4999704;28;92133;-75
2021/12/09 07:56:46;;;;;;;17.88;6.78;;;;;;;;;;4998427;28;94173;-73
2021/12/09 07:59:12;;;;;;;12.63;6.50;;;;;;;;;;5001947;28;93062;-74
2021/12/09 08:01:39;;;;;;;11.52;6.07;;;;;;;;;;5011318;28;95864;-73
2021/12/09 08:04:07;;;;;;;15.23;6.43;;;;;;;;;;5006999;28;95072;-73
2021/12/09 08:06:34;;;;;;;12.18;6.30;;;;;;;;;;4998283;28;94128;-73
2021/12/09 08:09:01;;;;;;;12.68;6.28;;;;;;;;;;5000583;28;94262;-74
2021/12/09 08:11:27;;;;;;;8.65;5.60;;;;;;;;;;5004289;28;92803;-73
2021/12/09 08:13:53;;;;;;;10.38;6.07;;;;;;;;;;4990271;28;93476;-74
2021/12/09 08:16:20;;;;;;;14.25;6.50;;;;;;;;;;4994736;28;93456;-74
2021/12/09 08:18:56;;;;;;;15.05;6.05;;;;;;;;;;4987268;28;93452;-74
2021/12/09 08:21:24;;;;;;;18.85;6.47;;;;;;;;;;4985306;28;92607;-74
2021/12/09 08:23:51;;;;;;;17.88;6.60;;;;;;;;;;4994708;28;94701;-74
2021/12/09 08:26:18;;;;;;;12.15;5.85;;;;;;;;;;4988607;28;95615;-74
2021/12/09 08:28:44;;;;;;;18.08;6.80;;;;;;;;;;4986177;28;95573;-74
2021/12/09 08:31:11;;;;;;;14.82;6.45;;;;;;;;;;4993806;28;93734;-75
2021/12/09 08:33:37;;;;;;;10.73;5.88;;;;;;;;;;4991027;28;93943;-74
2021/12/09 08:36:24;;;;;;;12.60;5.95;;;;;;;;;;4987381;28;93469;-75
2021/12/09 08:38:50;;;;;;;12.43;6.15;;;;;;;;;;4994165;28;94079;-74
2021/12/09 08:41:18;;;;;;;8.25;4.78;;;;;;;;;;4991113;28;95493;-75
2021/12/09 08:43:48;;;;;;;12.13;5.03;;;;;;;;;;4996908;28;91928;-75
2021/12/09 08:46:15;;;;;;;9.98;5.15;;;;;;;;;;4997499;28;93497;-75
2021/12/09 08:48:41;;;;;;;11.80;5.03;;;;;;;;;;4994106;28;93506;-74
2021/12/09 08:51:08;;;;;;;8.85;5.30;;;;;;;;;;4991139;28;95225;-74
2021/12/09 08:53:34;;;;;;;9.30;4.90;;;;;;;;;;4992967;28;97015;-77
2021/12/09 08:56:02;;;;;;;10.50;5.30;;;;;;;;;;4992383;28;93262;-74
2021/12/09 08:58:30;;;;;;;12.30;4.75;;;;;;;;;;4984600;28;92509;-74
2021/12/09 09:00:58;;;;;;;11.13;5.35;;;;;;;;;;4994449;28;94236;-74
2021/12/09 09:03:26;;;;;;;14.10;5.15;;;;;;;;;;4993272;28;93395;-75
2021/12/09 09:05:53;;;;;;;11.77;5.93;;;;;;;;;;4988989;28;93444;-74
2021/12/09 09:08:20;;;;;;;15.25;5.78;;;;;;;;;;4995701;28;93392;-74
2021/12/09 09:10:46;;;;;;;12.50;5.18;;;;;;;;;;4996559;28;94269;-75
2021/12/09 09:13:13;;;;;;;9.05;5.32;;;;;;;;;;4987964;28;93220;-73
2021/12/09 09:15:40;;;;;;;15.02;6.50;;;;;;;;;;4982195;28;96825;-73
2021/12/09 09:18:07;;;;;;;8.70;5.95;;;;;;;;;;4991234;28;93660;-74
2021/12/09 09:20:38;;;;;;;13.70;6.22;;;;;;;;;;4988657;28;94124;-75
2021/12/09 09:23:07;;;;;;;12.43;5.78;;;;;;;;;;4995989;28;94501;-74
2021/12/09 09:25:34;;;;;;;8.80;5.25;;;;;;;;;;4999880;28;94175;-73
2021/12/09 09:28:03;;;;;;;11.43;6.03;;;;;;;;;;4993730;28;93492;-74
2021/12/09 09:30:36;;;;;;;8.75;5.45;;;;;;;;;;4993835;28;92582;-74
2021/12/09 09:33:03;;;;;;;6.80;5.53;;;;;;;;;;4992351;28;94090;-74
2021/12/09 09:35:30;;;;;;;11.40;6.35;;;;;;;;;;4986718;28;95421;-75
2021/12/09 09:37:56;;;;;;;8.98;5.78;;;;;;;;;;4990607;28;92855;-74
2021/12/09 09:40:28;;;;;;;16.70;7.50;;;;;;;;;;4990391;28;94804;-74
2021/12/09 09:42:59;;;;;;;16.77;6.88;;;;;;;;;;4990157;28;93362;-74
2021/12/09 09:45:26;;;;;;;17.88;7.00;;;;;;;;;;4990993;28;92500;-74
2021/12/09 09:47:53;;;;;;;15.35;7.07;;;;;;;;;;4991700;28;94857;-75
2021/12/09 09:50:20;;;;;;;12.15;7.45;;;;;;;;;;4988440;28;93904;-75
2021/12/09 09:52:46;;;;;;;14.48;7.43;;;;;;;;;;4991306;28;94231;-74
2021/12/09 09:55:20;;;;;;;17.02;7.45;;;;;;;;;;4985292;28;93861;-74
2021/12/09 09:57:47;;;;;;;20.48;7.68;;;;;;;;;;4988463;28;92574;-73
2021/12/09 10:00:14;;;;;;;14.60;8.25;;;;;;;;;;5002578;28;93275;-73
2021/12/09 10:02:41;;;;;;;17.15;7.68;;;;;;;;;;4998746;28;93159;-73
2021/12/09 10:05:08;;;;;;;12.45;8.35;;;;;;;;;;4997401;28;95242;-74
2021/12/09 10:07:35;;;;;;;20.40;7.90;;;;;;;;;;4975540;28;95993;-74
2021/12/09 10:10:04;;;;;;;15.73;8.07;;;;;;;;;;4987822;28;92898;-74
2021/12/09 10:12:30;;;;;;;19.50;8.88;;;;;;;;;;5001579;28;93571;-74
2021/12/09 10:14:57;;;;;;;12.23;8.60;;;;;;;;;;5000100;28;92525;-74
2021/12/09 10:17:28;;;;;;;10.77;8.23;;;;;;;;;;4993697;28;93401;-74
2021/12/09 10:20:07;;;;;;;21.38;8.93;;;;;;;;;;5004989;28;94165;-74
2021/12/09 10:22:35;;;;;;;15.05;9.25;;;;;;;;;;4996723;28;94085;-74
2021/12/09 10:25:14;;;;;;;18.52;8.75;;;;;;;;;;5009318;28;93089;-74
2021/12/09 10:27:45;;;;;;;22.05;11.00;;;;;;;;;;4977023;28;94299;-74
2021/12/09 10:30:16;;;;;;;15.48;10.32;;;;;;;;;;4989654;28;97168;-74
2021/12/09 10:32:44;;;;;;;21.13;10.00;;;;;;;;;;4995070;28;96208;-73
2021/12/09 10:35:18;;;;;;;16.13;10.13;;;;;;;;;;5008078;28;94256;-73
2021/12/09 10:37:45;;;;;;;20.45;10.30;;;;;;;;;;4995912;28;92982;-74
2021/12/09 10:40:17;;;;;;;15.52;8.93;;;;;;;;;;5003604;28;93595;-73
2021/12/09 10:42:46;;;;;;;19.23;9.82;;;;;;;;;;4977788;28;93655;-73
2021/12/09 10:45:20;;;;;;;18.88;9.35;;;;;;;;;;4979497;28;94346;-74
2021/12/09 10:50:39;;;;;;;24.58;10.45;;;;;;;;;;4995267;28;93429;-73
2021/12/09 10:55:46;;;;;;;19.70;10.43;;;;;;;;;;4998850;28;95678;-74
2021/12/09 10:58:14;;;;;;;16.30;10.45;;;;;;;;;;4995998;28;92620;-75
2021/12/09 11:00:43;;;;;;;21.38;10.93;;;;;;;;;;5001340;28;94207;-74
2021/12/09 11:03:12;;;;;;;16.50;10.32;;;;;;;;;;5014478;28;94179;-74
2021/12/09 11:05:41;;;;;;;26.48;11.70;;;;;;;;;;4997313;28;92499;-74
2021/12/09 11:08:12;;;;;;;15.63;10.25;;;;;;;;;;4994229;28;94051;-74
2021/12/09 11:10:46;;;;;;;22.88;12.10;;;;;;;;;;4993308;28;94754;-74
2021/12/09 11:13:13;;;;;;;26.27;11.82;;;;;;;;;;4994091;28;91768;-74
2021/12/09 11:15:55;;;;;;;26.13;11.50;;;;;;;;;;4997288;28;92604;-74
2021/12/09 11:18:36;;;;;;;17.85;9.93;;;;;;;;;;4994189;28;92819;-74
2021/12/09 11:21:05;;;;;;;24.40;10.60;;;;;;;;;;4996026;28;94839;-74
2021/12/09 11:23:34;;;;;;;22.85;10.45;;;;;;;;;;4994433;28;94421;-75
2021/12/09 11:26:18;;;;;;;19.00;11.30;;;;;;;;;;4994188;28;92478;-74
2021/12/09 11:29:05;;;;;;;19.35;11.18;;;;;;;;;;4993467;28;94382;-74
2021/12/09 11:31:34;;;;;;;21.30;10.55;;;;;;;;;;4992042;28;94513;-74
2021/12/09 11:34:09;;;;;;;18.25;10.30;;;;;;;;;;4993395;28;92525;-73
2021/12/09 11:36:40;;;;;;;17.50;10.85;;;;;;;;;;4993758;28;94443;-74
2021/12/09 11:39:10;;;;;;;22.85;12.52;;;;;;;;;;4997449;28;93955;-74
2021/12/09 11:41:38;;;;;;;18.98;11.85;;;;;;;;;;4992667;28;93104;-74
2021/12/09 11:44:08;;;;;;;25.00;12.80;;;;;;;;;;4993659;28;93709;-74
2021/12/09 11:46:40;;;;;;;13.93;10.88;;;;;;;;;;4991958;28;94861;-74
2021/12/09 11:49:06;;;;;;;19.23;11.07;;;;;;;;;;4993335;28;96577;-74
2021/12/09 11:51:33;;;;;;;19.15;11.55;;;;;;;;;;4993477;28;94620;-78
2021/12/09 11:54:01;;;;;;;19.17;10.90;;;;;;;;;;4994449;28;92477;-75
2021/12/09 12:12:55;;;;;;;16.10;11.13;;;;;;;;;;4960272;28;95380;-74
2021/12/09 12:18:27;;;;;;;17.92;11.82;;;;;;;;;;4972349;28;93997;-74
2021/12/09 12:21:26;;;;;;;9.73;8.77;;;;;;;;;;4973639;28;93540;-74
2021/12/09 12:26:45;;;;;;;14.95;11.05;;;;;;;;;;4985033;28;93405;-74
2021/12/09 12:32:08;;;;;;;15.25;10.10;;;;;;;;;;4975167;28;93999;-74
2021/12/09 12:37:51;;;;;;;14.30;12.45;;;;;;;;;;4972763;28;92497;-74
2021/12/09 12:40:19;;;;;;;17.73;12.93;;;;;;;;;;4979639;28;94879;-74
2021/12/09 12:42:52;;;;;;;17.88;12.60;;;;;;;;;;4995044;28;93564;-74
2021/12/09 12:48:29;;;;;;;22.70;14.32;;;;;;;;;;4997182;28;93163;-74
2021/12/09 12:51:07;;;;;;;15.95;13.98;;;;;;;;;;4991690;28;92534;-73
2021/12/09 12:53:40;;;;;;;20.23;14.85;;;;;;;;;;4991923;28;95225;-74
2021/12/09 12:56:14;;;;;;;28.48;14.57;;;;;;;;;;4992793;28;94311;-74
2021/12/09 12:59:13;;;;;;;18.40;13.63;;;;;;;;;;4992578;28;91879;-74
2021/12/09 13:01:43;;;;;;;20.13;14.43;;;;;;;;;;4983676;28;92498;-74
2021/12/09 13:04:27;;;;;;;23.58;14.25;;;;;;;;;;4992651;28;94148;-75
2021/12/09 13:07:00;;;;;;;22.95;13.80;;;;;;;;;;4993065;28;95293;-75
2021/12/09 13:09:33;;;;;;;;;;;;;;;;;;4993595;28;95519;-74
2021/12/09 13:12:05;;;;;;;19.02;13.57;;;;;;;;;;4998030;28;120854;-74
2021/12/09 13:14:35;;;;;;;19.88;13.02;;;;;;;;;;4992925;28;94392;-73
2021/12/09 13:17:09;;;;;;;19.70;14.02;;;;;;;;;;4992424;28;94025;-74
2021/12/09 13:19:41;;;;;;;18.95;13.98;;;;;;;;;;4991964;28;92453;-75
2021/12/09 13:22:10;;;;;;;18.50;13.73;;;;;;;;;;4992909;28;93793;-75
2021/12/09 13:24:42;;;;;;;16.67;13.23;;;;;;;;;;4992194;28;92714;-73
2021/12/09 13:27:23;;;;;;;22.37;14.50;;;;;;;;;;4992909;28;92460;-74
2021/12/09 13:33:01;;;;;;;24.35;14.43;;;;;;;;;;4970876;28;96524;-75
2021/12/09 13:35:45;;;;;;;17.60;13.82;;;;;;;;;;4982450;28;92490;-76
2021/12/09 13:38:38;;;;;;;17.55;15.07;;;;;;;;;;4982496;28;94412;-73
2021/12/09 13:46:40;;;;;;;22.92;16.40;;;;;;;;;;4989246;28;92623;-74
2021/12/09 13:49:35;;;;;;;27.23;17.02;;;;;;;;;;4985497;28;94774;-74
2021/12/09 13:54:57;;;;;;;29.38;19.38;;;;;;;;;;4988677;28;93628;-75
2021/12/09 13:57:31;;;;;;;21.50;18.55;;;;;;;;;;4985652;28;93522;-74
2021/12/09 13:59:58;;;;;;;30.65;20.75;;;;;;;;;;4990996;28;96619;-75
2021/12/09 14:02:26;;;;;;;29.63;20.58;;;;;;;;;;5001601;28;92958;-74
2021/12/09 14:04:54;;;;;;;28.67;20.80;;;;;;;;;;4988346;28;94501;-74
2021/12/09 14:07:32;;;;;;;25.75;22.42;;;;;;;;;;5004926;28;93569;-73
2021/12/09 14:10:00;;;;;;;27.88;21.10;;;;;;;;;;5006381;28;92927;-74
2021/12/09 14:12:31;;;;;;;33.30;22.90;;;;;;;;;;4987879;28;94194;-73
2021/12/09 14:15:09;;;;;;;27.88;22.13;;;;;;;;;;4977153;28;94596;-73
2021/12/09 14:17:39;;;;;;;32.42;23.08;;;;;;;;;;4978188;28;92214;-73
2021/12/09 14:20:15;;;;;;;36.15;23.67;;;;;;;;;;5017262;28;92455;-73
2021/12/09 14:22:41;;;;;;;30.63;22.63;;;;;;;;;;4997729;28;92643;-74
2021/12/09 14:25:13;;;;;;;33.28;22.98;;;;;;;;;;4986783;28;95095;-74
2021/12/09 14:27:40;;;;;;;25.20;20.55;;;;;;;;;;5002335;28;94164;-74
2021/12/09 14:30:11;;;;;;;35.17;22.77;;;;;;;;;;4984092;28;93226;-73
2021/12/09 14:32:43;;;;;;;26.38;21.15;;;;;;;;;;4995801;28;93679;-74
2021/12/09 14:35:09;;;;;;;30.60;21.90;;;;;;;;;;5004713;28;94252;-73
2021/12/09 14:37:38;;;;;;;30.27;23.65;;;;;;;;;;5010707;28;92793;-73
2021/12/09 14:40:07;;;;;;;22.58;19.75;;;;;;;;;;5003991;28;93306;-74
2021/12/09 14:42:45;;;;;;;32.40;22.20;;;;;;;;;;4993026;28;93391;-74
2021/12/09 14:45:11;;;;;;;30.73;24.55;;;;;;;;;;4984852;28;94408;-73
2021/12/09 14:47:37;;;;;;;31.48;24.15;;;;;;;;;;4975266;28;93602;-77
2021/12/09 14:50:08;;;;;;;31.40;23.25;;;;;;;;;;4992999;28;96363;-74
2021/12/09 14:52:37;;;;;;;32.13;23.75;;;;;;;;;;5008283;28;95381;-74
2021/12/09 14:55:13;;;;;;;28.00;22.52;;;;;;;;;;4998494;28;95217;-73
2021/12/09 14:57:52;;;;;;;45.67;24.08;;;;;;;;;;5003590;28;92462;-73
2021/12/09 15:00:32;;;;;;;34.72;23.35;;;;;;;;;;4988703;28;94515;-75
2021/12/09 15:03:01;;;;;;;19.73;15.38;;;;;;;;;;5007956;28;94744;-74
2021/12/09 15:05:28;;;;;;;33.00;22.85;;;;;;;;;;5014643;28;92974;-73
2021/12/09 15:08:05;;;;;;;38.78;24.20;;;;;;;;;;5012361;28;92945;-73
2021/12/09 15:10:33;;;;;;;33.63;25.23;;;;;;;;;;5014063;28;92469;-73
2021/12/09 15:13:02;;;;;;;34.03;21.00;;;;;;;;;;5013335;28;94137;-74
2021/12/09 15:15:30;;;;;;;31.52;22.67;;;;;;;;;;4993633;28;96621;-74
2021/12/09 15:18:05;;;;;;;32.60;24.58;;;;;;;;;;4974428;28;93134;-73
2021/12/09 15:20:42;;;;;;;30.23;24.20;;;;;;;;;;4975137;28;94311;-73
2021/12/09 15:23:52;;;;;;;33.92;24.13;;;;;;;;;;4987696;28;94465;-74
2021/12/09 15:26:26;;;;;;;28.25;23.30;;;;;;;;;;4973076;28;92493;-74